Time;durP1;ratioP1;P1;durP2;ratioP2;P2;SDS_P1;SDS_P2;PMS_P1;PMS_P2;Temp;Humidity;BMP_temperature;BMP_pressure;BME280_temperature;BME280_humidity;BME280_pressure;Samples;Min_cycle;Max_cycle;Signal;HPM_P1;HPM_P2
2023/05/20 00:03:10;;;;;;;1.40;0.93;;;;;;;0.01;0.00;59042.03;10449992;28;20087;-85
2023/05/20 00:08:12;;;;;;;2.22;0.90;;;;;;;0.01;0.00;59042.03;10424845;28;20041;-84
2023/05/20 00:13:14;;;;;;;1.10;0.50;;;;;;;0.01;0.00;59042.03;10448262;28;20065;-83
2023/05/20 00:18:16;;;;;;;2.85;1.05;;;;;;;0.01;0.00;59042.03;10421807;28;20069;-83
2023/05/20 00:23:18;;;;;;;1.90;0.80;;;;;;;0.01;0.00;59042.03;10447486;28;20045;-83
2023/05/20 00:28:20;;;;;;;1.42;0.70;;;;;;;0.01;0.00;59042.03;10446532;28;20052;-83
2023/05/20 00:33:22;;;;;;;0.57;0.47;;;;;;;0.01;0.00;59042.03;10409386;28;20049;-83
2023/05/20 00:38:24;;;;;;;1.00;0.70;;;;;;;0.01;0.00;59042.03;10447069;28;20053;-84
2023/05/20 00:43:26;;;;;;;1.00;0.77;;;;;;;0.01;0.00;59042.03;10446377;28;20536;-83
2023/05/20 00:48:38;;;;;;;1.08;0.55;;;;;;;0.01;0.00;59042.03;10444138;28;20037;-82
2023/05/20 00:53:40;;;;;;;2.70;0.68;;;;;;;0.01;0.00;59042.03;10452593;28;20057;-82
2023/05/20 00:58:42;;;;;;;0.93;0.50;;;;;;;0.01;0.00;59042.03;10452092;28;20048;-83
2023/05/20 01:03:44;;;;;;;3.70;0.88;;;;;;;0.01;0.00;59042.03;10427546;28;20072;-82
2023/05/20 01:08:46;;;;;;;1.00;0.35;;;;;;;0.01;0.00;59042.03;10425980;28;20045;-83
2023/05/20 01:13:55;;;;;;;2.45;0.60;;;;;;;0.01;0.00;59042.03;10451409;28;20485;-83
2023/05/20 01:18:58;;;;;;;0.68;0.60;;;;;;;0.01;0.00;59042.03;10423941;28;20049;-83
2023/05/20 01:24:04;;;;;;;0.73;0.57;;;;;;;0.01;0.00;59042.03;10451547;28;20081;-83
2023/05/20 01:29:07;;;;;;;0.50;0.40;;;;;;;0.01;0.00;59042.03;10433015;28;20059;-84
2023/05/20 01:34:09;;;;;;;0.40;0.40;;;;;;;0.01;0.00;59042.03;10424913;28;20071;-83
2023/05/20 01:39:12;;;;;;;3.50;0.60;;;;;;;0.01;0.00;59042.03;10452146;28;20144;-83
2023/05/20 01:44:14;;;;;;;1.15;0.63;;;;;;;0.01;0.00;59042.03;10434729;28;20067;-83
2023/05/20 01:49:16;;;;;;;0.65;0.50;;;;;;;0.01;0.00;59042.03;10432724;28;20076;-83
2023/05/20 01:54:18;;;;;;;0.43;0.40;;;;;;;0.01;0.00;59042.03;10432297;28;20056;-83
2023/05/20 01:59:20;;;;;;;0.40;0.40;;;;;;;0.01;0.00;59042.03;10448600;28;20037;-82
2023/05/20 02:04:21;;;;;;;1.48;0.50;;;;;;;0.01;0.00;59042.03;10426816;28;20683;-83
2023/05/20 02:09:23;;;;;;;1.73;0.73;;;;;;;0.01;0.00;59042.03;10433998;28;20148;-82
2023/05/20 02:14:26;;;;;;;1.20;0.63;;;;;;;0.01;0.00;59042.03;10433456;28;20139;-84
2023/05/20 02:19:28;;;;;;;0.98;0.40;;;;;;;0.01;0.00;59042.03;10433591;28;20550;-83
2023/05/20 02:24:31;;;;;;;2.35;0.50;;;;;;;0.01;0.00;59042.03;10432967;28;20509;-82
2023/05/20 02:29:32;;;;;;;4.63;0.60;;;;;;;0.01;0.00;59042.03;10456741;28;20099;-83
2023/05/20 02:34:34;;;;;;;2.05;0.52;;;;;;;0.01;0.00;59042.03;10458164;28;20487;-83
2023/05/20 02:39:36;;;;;;;1.08;0.50;;;;;;;0.01;0.00;59042.03;10449829;28;20049;-82
2023/05/20 02:44:37;;;;;;;0.52;0.32;;;;;;;0.01;0.00;59042.03;10457085;28;20061;-83
2023/05/20 02:49:39;;;;;;;1.25;0.50;;;;;;;0.01;0.00;59042.03;10429087;28;20051;-83
2023/05/20 02:54:41;;;;;;;0.95;0.45;;;;;;;0.01;0.00;59042.03;10438178;28;20076;-83
2023/05/20 02:59:42;;;;;;;1.95;0.55;;;;;;;0.01;0.00;59042.03;10421082;28;20041;-83
2023/05/20 03:04:46;;;;;;;1.08;0.50;;;;;;;0.01;0.00;59042.03;10436790;28;20060;-82
2023/05/20 03:09:48;;;;;;;2.45;1.00;;;;;;;0.01;0.00;59042.03;10435864;28;20053;-83
2023/05/20 03:14:54;;;;;;;0.32;0.30;;;;;;;0.01;0.00;59042.03;10434680;28;20055;-82
2023/05/20 03:19:56;;;;;;;0.70;0.40;;;;;;;0.01;0.00;59042.03;10432542;28;20092;-83
2023/05/20 03:24:59;;;;;;;2.78;1.02;;;;;;;0.01;0.00;59042.03;10431846;28;20139;-82
2023/05/20 03:30:02;;;;;;;2.95;0.85;;;;;;;0.01;0.00;59042.03;10430468;28;20048;-82
2023/05/20 03:35:06;;;;;;;0.25;0.25;;;;;;;0.01;0.00;59042.03;10428360;28;20045;-83
2023/05/20 03:40:09;;;;;;;4.75;0.65;;;;;;;0.01;0.00;59042.03;10442294;28;20132;-83
2023/05/20 03:45:12;;;;;;;0.68;0.35;;;;;;;0.01;0.00;59042.03;10446894;28;20360;-83
2023/05/20 03:50:21;;;;;;;4.40;0.57;;;;;;;0.01;0.00;59042.03;10445755;28;20120;-81
2023/05/20 03:55:23;;;;;;;1.48;0.45;;;;;;;0.01;0.00;59042.03;10464350;28;20060;-83
2023/05/20 04:00:26;;;;;;;0.30;0.25;;;;;;;0.01;0.00;59042.03;10445469;28;20067;-83
2023/05/20 04:05:28;;;;;;;0.38;0.38;;;;;;;0.01;0.00;59042.03;10446208;28;20064;-83
2023/05/20 04:10:32;;;;;;;1.58;0.50;;;;;;;0.01;0.00;59042.03;10446236;28;20064;-82
2023/05/20 04:15:37;;;;;;;0.68;0.52;;;;;;;0.01;0.00;59042.03;10444756;28;20055;-82
2023/05/20 04:20:40;;;;;;;0.32;0.30;;;;;;;0.01;0.00;59042.03;10437241;28;20405;-83
2023/05/20 04:25:43;;;;;;;0.30;0.30;;;;;;;0.01;0.00;59042.03;10445461;28;20570;-82
2023/05/20 04:30:45;;;;;;;3.88;0.70;;;;;;;0.01;0.00;59042.03;10444547;28;20037;-83
2023/05/20 04:35:48;;;;;;;0.90;0.60;;;;;;;0.01;0.00;59042.03;10460382;28;20037;-83
2023/05/20 04:40:50;;;;;;;0.73;0.40;;;;;;;0.01;0.00;59042.03;10466953;28;20037;-83
2023/05/20 04:45:52;;;;;;;0.52;0.52;;;;;;;0.01;0.00;59042.03;10496896;28;20103;-82
2023/05/20 04:50:53;;;;;;;0.77;0.50;;;;;;;0.01;0.00;59042.03;10448701;28;20064;-83
2023/05/20 04:55:55;;;;;;;1.13;0.68;;;;;;;0.01;0.00;59042.03;10475314;28;20047;-83
2023/05/20 05:00:58;;;;;;;0.38;0.32;;;;;;;0.01;0.00;59042.03;10436287;28;20045;-83
2023/05/20 05:06:00;;;;;;;0.70;0.60;;;;;;;0.01;0.00;59042.03;10442063;28;20385;-83
2023/05/20 05:11:04;;;;;;;1.27;0.63;;;;;;;0.01;0.00;59042.03;10456878;28;20036;-83
2023/05/20 05:16:06;;;;;;;2.28;0.70;;;;;;;0.01;0.00;59042.03;10460650;28;20072;-82
2023/05/20 05:21:08;;;;;;;0.70;0.40;;;;;;;0.01;0.00;59042.03;10429482;28;20057;-83
2023/05/20 05:26:11;;;;;;;3.10;0.50;;;;;;;0.01;0.00;59042.03;10453630;28;20098;-82
2023/05/20 05:31:13;;;;;;;0.20;0.20;;;;;;;0.01;0.00;59042.03;10431808;28;20347;-83
2023/05/20 05:36:16;;;;;;;5.50;0.50;;;;;;;0.01;0.00;59042.03;10441063;28;20032;-83
2023/05/20 05:41:18;;;;;;;1.23;0.60;;;;;;;0.01;0.00;59042.03;10443002;28;20033;-83
2023/05/20 05:46:20;;;;;;;0.60;0.43;;;;;;;0.01;0.00;59042.03;10448755;28;20140;-86
2023/05/20 05:51:23;;;;;;;0.45;0.40;;;;;;;0.01;0.00;59042.03;10461213;28;20033;-83
2023/05/20 05:56:26;;;;;;;0.40;0.40;;;;;;;0.01;0.00;59042.03;10425972;28;20072;-83
2023/05/20 06:01:29;;;;;;;0.55;0.50;;;;;;;0.01;0.00;59042.03;10442373;28;20461;-82
2023/05/20 06:06:32;;;;;;;2.00;0.55;;;;;;;0.01;0.00;59042.03;10440339;28;20040;-83
2023/05/20 06:11:34;;;;;;;1.33;0.45;;;;;;;0.01;0.00;59042.03;10446256;28;20040;-83
2023/05/20 06:16:35;;;;;;;1.23;0.55;;;;;;;0.01;0.00;59042.03;10450226;28;20060;-83
2023/05/20 06:21:37;;;;;;;0.45;0.40;;;;;;;0.01;0.00;59042.03;10426679;28;20127;-83
2023/05/20 06:26:39;;;;;;;0.90;0.52;;;;;;;0.01;0.00;59042.03;10479403;28;20056;-82
2023/05/20 06:31:41;;;;;;;0.35;0.35;;;;;;;0.01;0.00;59042.03;10428554;28;20048;-84
2023/05/20 06:36:43;;;;;;;1.38;0.80;;;;;;;0.01;0.00;59042.03;10466817;28;20044;-83
2023/05/20 06:41:45;;;;;;;0.40;0.40;;;;;;;0.01;0.00;59042.03;10441806;28;20047;-84
2023/05/20 06:46:53;;;;;;;0.88;0.73;;;;;;;0.01;0.00;59042.03;10466531;28;20106;-83
2023/05/20 06:51:55;;;;;;;0.47;0.47;;;;;;;0.01;0.00;59042.03;10458047;28;20033;-84
2023/05/20 06:56:58;;;;;;;1.60;0.60;;;;;;;0.01;0.00;59042.03;10446947;28;20044;-83
2023/05/20 07:01:59;;;;;;;3.03;0.90;;;;;;;0.01;0.00;59042.03;10453949;28;20041;-84
2023/05/20 07:07:01;;;;;;;0.98;0.60;;;;;;;0.01;0.00;59042.03;10451459;28;20500;-84
2023/05/20 07:12:03;;;;;;;1.00;0.65;;;;;;;0.01;0.00;59042.03;10443779;28;20571;-84
2023/05/20 07:17:05;;;;;;;1.33;0.75;;;;;;;0.01;0.00;59042.03;10471792;28;20059;-81
2023/05/20 07:22:07;;;;;;;;;;;;;;;0.01;0.00;59042.03;10466608;28;20132;-82
2023/05/20 07:27:19;;;;;;;1.80;0.93;;;;;;;0.01;0.00;59042.03;10463226;28;19931;-81
2023/05/20 07:32:21;;;;;;;1.67;1.00;;;;;;;0.01;0.00;59042.03;10454757;28;24480;-83
2023/05/20 07:37:23;;;;;;;1.27;1.00;;;;;;;0.01;0.00;59042.03;10460371;28;20047;-81
2023/05/20 07:42:25;;;;;;;2.42;0.82;;;;;;;0.01;0.00;59042.03;10464786;28;20037;-83
2023/05/20 07:47:32;;;;;;;1.67;1.00;;;;;;;0.01;0.00;59042.03;10464191;28;20040;-83
2023/05/20 07:52:34;;;;;;;1.90;1.10;;;;;;;0.01;0.00;59042.03;10454365;28;20037;-81
2023/05/20 07:57:49;;;;;;;1.30;0.68;;;;;;;0.01;0.00;59042.03;10461639;28;20064;-85
2023/05/20 08:02:52;;;;;;;2.17;0.80;;;;;;;0.01;0.00;59042.03;10455211;28;20041;-83
2023/05/20 08:08:02;;;;;;;1.63;0.73;;;;;;;0.01;0.00;59042.03;10444288;28;20048;-83
2023/05/20 08:13:13;;;;;;;2.28;1.10;;;;;;;0.01;0.00;59042.03;10466781;28;20634;-83
2023/05/20 08:18:14;;;;;;;2.03;1.08;;;;;;;0.01;0.00;59042.03;10459427;28;20060;-83
2023/05/20 08:23:16;;;;;;;1.80;1.05;;;;;;;0.01;0.00;59042.03;10458427;28;20041;-83
2023/05/20 08:28:18;;;;;;;1.98;1.10;;;;;;;0.01;0.00;59042.03;10473679;28;20044;-83
2023/05/20 08:33:21;;;;;;;4.68;1.42;;;;;;;0.01;0.00;59042.03;10461162;28;20072;-82
2023/05/20 08:38:23;;;;;;;1.60;0.90;;;;;;;0.01;0.00;59042.03;10457594;28;20400;-82
2023/05/20 08:43:26;;;;;;;1.58;0.88;;;;;;;0.01;0.00;59042.03;10491624;28;20044;-83
2023/05/20 08:48:29;;;;;;;2.28;1.00;;;;;;;0.01;0.00;59042.03;10474846;28;20429;-83
2023/05/20 08:53:31;;;;;;;6.70;1.30;;;;;;;0.01;0.00;59042.03;10466525;28;20053;-83
2023/05/20 08:58:32;;;;;;;2.83;1.13;;;;;;;0.01;0.00;59042.03;10482928;28;20436;-81
2023/05/20 09:03:34;;;;;;;3.20;1.08;;;;;;;0.01;0.00;59042.03;10438666;28;20083;-84
2023/05/20 09:08:36;;;;;;;2.28;1.00;;;;;;;0.01;0.00;59042.03;10444819;28;20098;-83
2023/05/20 09:13:38;;;;;;;2.22;0.98;;;;;;;0.01;0.00;59042.03;10461994;28;20041;-83
2023/05/20 09:18:40;;;;;;;5.00;0.98;;;;;;;0.01;0.00;59042.03;10476466;28;20516;-84
2023/05/20 09:23:48;;;;;;;2.78;1.25;;;;;;;0.01;0.00;59042.03;10467612;28;20196;-82
2023/05/20 09:28:50;;;;;;;7.38;1.40;;;;;;;0.01;0.00;59042.03;10464613;28;20052;-83
2023/05/20 09:33:52;;;;;;;2.83;1.30;;;;;;;0.01;0.00;59042.03;10447466;28;20048;-85
2023/05/20 09:38:58;;;;;;;1.13;0.88;;;;;;;0.01;0.00;59042.03;10462717;28;20044;-83
2023/05/20 09:44:00;;;;;;;4.80;1.23;;;;;;;0.01;0.00;59042.03;10474872;28;20480;-84
2023/05/20 09:49:05;;;;;;;1.35;0.88;;;;;;;0.01;0.00;59042.03;10455246;28;20045;-84
2023/05/20 09:54:08;;;;;;;2.13;1.10;;;;;;;0.01;0.00;59042.03;10413581;28;20045;-83
2023/05/20 09:59:11;;;;;;;2.15;0.80;;;;;;;0.01;0.00;59042.03;10435769;28;20045;-82
2023/05/20 10:04:16;;;;;;;12.63;1.30;;;;;;;0.01;0.00;59042.03;10449523;28;20049;-83
2023/05/20 10:09:41;;;;;;;2.08;0.90;;;;;;;0.01;0.00;59042.03;10448140;28;20121;-82
2023/05/20 10:15:00;;;;;;;3.65;1.10;;;;;;;0.01;0.00;59042.03;10447485;28;20079;-83
2023/05/20 10:20:05;;;;;;;;;;;;;;;0.01;0.00;59042.03;10445641;28;20085;-83
2023/05/20 10:25:23;;;;;;;1.77;0.75;;;;;;;0.01;0.00;59042.03;10447526;28;19992;-84
2023/05/20 10:30:24;;;;;;;1.52;0.70;;;;;;;0.01;0.00;59042.03;10425816;28;20064;-83
2023/05/20 10:35:26;;;;;;;1.33;0.80;;;;;;;0.01;0.00;59042.03;10443736;28;20040;-83
2023/05/20 10:40:28;;;;;;;4.82;0.90;;;;;;;0.01;0.00;59042.03;10446658;28;20121;-83
2023/05/20 10:45:31;;;;;;;1.95;0.80;;;;;;;0.01;0.00;59042.03;10445361;28;20112;-83
2023/05/20 10:50:35;;;;;;;3.25;0.80;;;;;;;0.01;0.00;59042.03;10453409;28;20045;-85
2023/05/20 10:55:38;;;;;;;1.35;0.70;;;;;;;0.01;0.00;59042.03;10453142;28;20314;-86
2023/05/20 11:00:40;;;;;;;4.18;1.20;;;;;;;0.01;0.00;59042.03;10436890;28;20120;-83
2023/05/20 11:05:45;;;;;;;0.90;0.80;;;;;;;0.01;0.00;59042.03;10439780;28;20504;-84
2023/05/20 11:10:47;;;;;;;6.50;0.80;;;;;;;0.01;0.00;59042.03;10436085;28;20063;-83
2023/05/20 11:15:49;;;;;;;2.10;0.90;;;;;;;0.01;0.00;59042.03;10424173;28;20044;-83
2023/05/20 11:20:53;;;;;;;5.15;0.90;;;;;;;0.01;0.00;59042.03;10452648;28;20033;-84
2023/05/20 11:25:56;;;;;;;2.05;1.05;;;;;;;0.01;0.00;59042.03;10451612;28;20105;-84
2023/05/20 11:30:58;;;;;;;2.92;0.80;;;;;;;0.01;0.00;59042.03;10453186;28;20143;-82
2023/05/20 11:36:08;;;;;;;3.05;1.20;;;;;;;0.01;0.00;59042.03;10445332;28;20048;-86
2023/05/20 11:41:28;;;;;;;1.67;1.00;;;;;;;0.01;0.00;59042.03;10442413;28;20644;-84
2023/05/20 11:46:30;;;;;;;2.05;0.90;;;;;;;0.01;0.00;59042.03;10439169;28;20033;-84
2023/05/20 11:51:31;;;;;;;2.00;1.00;;;;;;;0.01;0.00;59042.03;10458009;28;20059;-85
2023/05/20 11:56:37;;;;;;;1.23;0.80;;;;;;;0.01;0.00;59042.03;10453719;28;20049;-84
2023/05/20 12:01:42;;;;;;;1.95;0.80;;;;;;;0.01;0.00;59042.03;10456435;28;20444;-85
2023/05/20 12:06:44;;;;;;;3.25;1.10;;;;;;;0.01;0.00;59042.03;10450052;28;20400;-84
2023/05/20 12:11:46;;;;;;;1.70;0.88;;;;;;;0.01;0.00;59042.03;10436560;28;20033;-83
2023/05/20 12:16:47;;;;;;;4.25;0.80;;;;;;;0.01;0.00;59042.03;10456097;28;20049;-83
2023/05/20 12:21:51;;;;;;;1.30;0.90;;;;;;;0.01;0.00;59042.03;10471857;28;20037;-87
2023/05/20 12:26:53;;;;;;;2.95;0.90;;;;;;;0.01;0.00;59042.03;10483495;28;20040;-85
2023/05/20 12:31:54;;;;;;;3.33;1.30;;;;;;;0.01;0.00;59042.03;10482922;28;20037;-84
2023/05/20 12:36:56;;;;;;;1.98;0.75;;;;;;;0.01;0.00;59042.03;10480511;28;20539;-84
2023/05/20 12:41:58;;;;;;;2.05;0.90;;;;;;;0.01;0.00;59042.03;10429821;28;20464;-83
2023/05/20 12:46:59;;;;;;;2.08;0.90;;;;;;;0.01;0.00;59042.03;10443978;28;20075;-84
2023/05/20 12:52:01;;;;;;;0.65;0.65;;;;;;;0.01;0.00;59042.03;10443447;28;20037;-84
2023/05/20 12:57:09;;;;;;;1.67;0.70;;;;;;;0.01;0.00;59042.03;10435336;28;20479;-87
2023/05/20 13:02:11;;;;;;;1.90;0.68;;;;;;;0.01;0.00;59042.03;10424193;28;20844;-86
2023/05/20 13:07:13;;;;;;;2.40;0.77;;;;;;;0.01;0.00;59042.03;10443315;28;20045;-83
2023/05/20 13:12:14;;;;;;;1.17;0.70;;;;;;;0.01;0.00;59042.03;10434405;28;20623;-83
2023/05/20 13:17:17;;;;;;;3.35;1.05;;;;;;;0.01;0.00;59042.03;10423757;28;20048;-83
2023/05/20 13:22:18;;;;;;;2.08;1.13;;;;;;;0.01;0.00;59042.03;10444202;28;20060;-84
2023/05/20 13:27:20;;;;;;;3.63;1.00;;;;;;;0.01;0.00;59042.03;10444826;28;20397;-83
2023/05/20 13:32:21;;;;;;;1.45;0.85;;;;;;;0.01;0.00;59042.03;10445509;28;20103;-84
2023/05/20 13:37:23;;;;;;;2.33;0.95;;;;;;;0.01;0.00;59042.03;10444684;28;20052;-85
2023/05/20 13:42:25;;;;;;;2.20;1.15;;;;;;;0.01;0.00;59042.03;10423796;28;20064;-84
2023/05/20 13:47:26;;;;;;;2.90;1.00;;;;;;;0.01;0.00;59042.03;10446296;28;20128;-84
2023/05/20 13:52:28;;;;;;;2.20;0.90;;;;;;;0.01;0.00;59042.03;10445529;28;20110;-84
2023/05/20 13:57:30;;;;;;;2.28;1.10;;;;;;;0.01;0.00;59042.03;10442285;28;20079;-85
2023/05/20 14:02:32;;;;;;;2.15;0.80;;;;;;;0.01;0.00;59042.03;10443193;28;20048;-83
2023/05/20 14:07:33;;;;;;;1.58;0.80;;;;;;;0.01;0.00;59042.03;10445671;28;20052;-83
2023/05/20 14:12:35;;;;;;;2.13;0.95;;;;;;;0.01;0.00;59042.03;10444937;28;20037;-86
2023/05/20 14:17:37;;;;;;;3.70;0.90;;;;;;;0.01;0.00;59042.03;10425954;28;20068;-85
2023/05/20 14:22:38;;;;;;;2.85;1.08;;;;;;;0.01;0.00;59042.03;10440246;28;20067;-84
2023/05/20 14:27:40;;;;;;;1.95;1.10;;;;;;;0.01;0.00;59042.03;10440185;28;20049;-83
2023/05/20 14:32:42;;;;;;;2.33;0.90;;;;;;;0.01;0.00;59042.03;10442640;28;20076;-85
2023/05/20 14:37:43;;;;;;;3.50;0.98;;;;;;;0.01;0.00;59042.03;10425394;28;20463;-85
2023/05/20 14:42:45;;;;;;;3.05;1.13;;;;;;;0.01;0.00;59042.03;10441494;28;20470;-84
2023/05/20 14:47:47;;;;;;;2.67;0.98;;;;;;;0.01;0.00;59042.03;10425718;28;20052;-84
2023/05/20 14:52:48;;;;;;;2.78;1.00;;;;;;;0.01;0.00;59042.03;10443210;28;20068;-84
2023/05/20 14:57:50;;;;;;;1.35;0.80;;;;;;;0.01;0.00;59042.03;10442723;28;20144;-84
2023/05/20 15:02:52;;;;;;;4.35;1.33;;;;;;;0.01;0.00;59042.03;10442711;28;20045;-84
2023/05/20 15:07:54;;;;;;;2.10;1.00;;;;;;;0.01;0.00;59042.03;10442437;28;20103;-84
2023/05/20 15:12:55;;;;;;;1.48;0.70;;;;;;;0.01;0.00;59042.03;10425774;28;20045;-85
2023/05/20 15:17:57;;;;;;;2.20;1.10;;;;;;;0.01;0.00;59042.03;10445937;28;20528;-84
2023/05/20 15:22:59;;;;;;;3.55;1.00;;;;;;;0.01;0.00;59042.03;10443669;28;20132;-85
2023/05/20 15:28:01;;;;;;;3.83;1.08;;;;;;;0.01;0.00;59042.03;10443580;28;20574;-84
2023/05/20 15:33:03;;;;;;;4.90;0.93;;;;;;;0.01;0.00;59042.03;10444713;28;20076;-83
2023/05/20 15:38:05;;;;;;;4.05;1.48;;;;;;;0.01;0.00;59042.03;10449571;28;20049;-84
2023/05/20 15:43:06;;;;;;;4.07;0.88;;;;;;;0.01;0.00;59042.03;10451782;28;20053;-84
2023/05/20 15:48:08;;;;;;;3.53;1.20;;;;;;;0.01;0.00;59042.03;10446346;28;20053;-83
2023/05/20 15:53:10;;;;;;;2.13;1.10;;;;;;;0.01;0.00;59042.03;10451733;28;20302;-84
2023/05/20 15:58:12;;;;;;;2.92;1.00;;;;;;;0.01;0.00;59042.03;10449680;28;20053;-83
2023/05/20 16:03:13;;;;;;;1.77;1.10;;;;;;;0.01;0.00;59042.03;10431865;28;20497;-84
2023/05/20 16:08:15;;;;;;;2.53;1.10;;;;;;;0.01;0.00;59042.03;10451141;28;20057;-85
2023/05/20 16:13:17;;;;;;;3.08;1.02;;;;;;;0.01;0.00;59042.03;10451776;28;20049;-86
2023/05/20 16:18:18;;;;;;;3.90;1.25;;;;;;;0.01;0.00;59042.03;10450586;28;20308;-84
2023/05/20 16:23:20;;;;;;;3.03;1.08;;;;;;;0.01;0.00;59042.03;10451139;28;20116;-83
2023/05/20 16:28:22;;;;;;;3.75;1.13;;;;;;;0.01;0.00;59042.03;10432788;28;20057;-84
2023/05/20 16:33:24;;;;;;;3.90;1.02;;;;;;;0.01;0.00;59042.03;10447703;28;20040;-86
2023/05/20 16:38:25;;;;;;;2.75;1.38;;;;;;;0.01;0.00;59042.03;10433701;28;20132;-83
2023/05/20 16:43:27;;;;;;;4.35;1.45;;;;;;;0.01;0.00;59042.03;10451962;28;20491;-83
2023/05/20 16:48:29;;;;;;;2.30;0.95;;;;;;;0.01;0.00;59042.03;10450151;28;20067;-83
2023/05/20 16:53:30;;;;;;;3.60;1.23;;;;;;;0.01;0.00;59042.03;10450290;28;20640;-83
2023/05/20 16:58:32;;;;;;;3.28;1.50;;;;;;;0.01;0.00;59042.03;10452369;28;20087;-83
2023/05/20 17:03:34;;;;;;;1.80;1.10;;;;;;;0.01;0.00;59042.03;10453721;28;20064;-82
2023/05/20 17:08:36;;;;;;;4.63;1.40;;;;;;;0.01;0.00;59042.03;10452792;28;20052;-84
2023/05/20 17:13:40;;;;;;;2.53;1.40;;;;;;;0.01;0.00;59042.03;10454366;28;20040;-84
2023/05/20 17:18:42;;;;;;;3.28;1.50;;;;;;;0.01;0.00;59042.03;10451462;28;20044;-83
2023/05/20 17:23:43;;;;;;;2.28;1.38;;;;;;;0.01;0.00;59042.03;10449828;28;20125;-83
2023/05/20 17:28:45;;;;;;;3.67;1.10;;;;;;;0.01;0.00;59042.03;10449808;28;20041;-84
2023/05/20 17:33:46;;;;;;;3.30;1.23;;;;;;;0.01;0.00;59042.03;10450371;28;20056;-83
2023/05/20 17:38:49;;;;;;;1.95;1.10;;;;;;;0.01;0.00;59042.03;10452762;28;20080;-84
2023/05/20 17:43:51;;;;;;;3.38;1.48;;;;;;;0.01;0.00;59042.03;10451093;28;20056;-84
2023/05/20 17:48:52;;;;;;;5.05;1.50;;;;;;;0.01;0.00;59042.03;10448432;28;20065;-84
2023/05/20 17:53:54;;;;;;;7.60;1.73;;;;;;;0.01;0.00;59042.03;10448982;28;20036;-83
2023/05/20 17:58:56;;;;;;;4.35;1.60;;;;;;;0.01;0.00;59042.03;10447728;28;20531;-84
2023/05/20 18:04:02;;;;;;;3.25;1.38;;;;;;;0.01;0.00;59042.03;10448186;28;20646;-84
2023/05/20 18:09:04;;;;;;;2.13;1.15;;;;;;;0.01;0.00;59042.03;10429426;28;20049;-83
2023/05/20 18:14:06;;;;;;;3.08;1.40;;;;;;;0.01;0.00;59042.03;10448129;28;20049;-84
2023/05/20 18:19:08;;;;;;;4.25;1.20;;;;;;;0.01;0.00;59042.03;10448082;28;20117;-83
2023/05/20 18:24:10;;;;;;;3.20;1.48;;;;;;;0.01;0.00;59042.03;10448009;28;20052;-83
2023/05/20 18:29:12;;;;;;;2.90;1.20;;;;;;;0.01;0.00;59042.03;10447651;28;20048;-84
2023/05/20 18:34:15;;;;;;;4.13;1.30;;;;;;;0.01;0.00;59042.03;10447431;28;20061;-84
2023/05/20 18:39:19;;;;;;;2.35;1.20;;;;;;;0.01;0.00;59042.03;10447156;28;20126;-84
2023/05/20 18:44:21;;;;;;;2.97;1.38;;;;;;;0.01;0.00;59042.03;10430123;28;20048;-82
2023/05/20 18:49:22;;;;;;;3.72;1.20;;;;;;;0.01;0.00;59042.03;10448052;28;20148;-83
2023/05/20 18:54:24;;;;;;;3.58;1.30;;;;;;;0.01;0.00;59042.03;10447569;28;20049;-83
2023/05/20 18:59:25;;;;;;;2.08;1.10;;;;;;;0.01;0.00;59042.03;10449256;28;20045;-83
2023/05/20 19:04:27;;;;;;;4.18;1.38;;;;;;;0.01;0.00;59042.03;10440093;28;20045;-84
2023/05/20 19:09:29;;;;;;;4.13;1.42;;;;;;;0.01;0.00;59042.03;10448720;28;20091;-84
2023/05/20 19:14:30;;;;;;;6.18;1.75;;;;;;;0.01;0.00;59042.03;10458109;28;20041;-83
2023/05/20 19:19:32;;;;;;;2.28;1.08;;;;;;;0.01;0.00;59042.03;10456555;28;20049;-84
2023/05/20 19:24:34;;;;;;;2.38;1.17;;;;;;;0.01;0.00;59042.03;10455115;28;20048;-83
2023/05/20 19:29:35;;;;;;;4.85;1.88;;;;;;;0.01;0.00;59042.03;10453045;28;20045;-83
2023/05/20 19:34:37;;;;;;;2.45;1.38;;;;;;;0.01;0.00;59042.03;10454753;28;20131;-84
2023/05/20 19:39:39;;;;;;;2.13;1.20;;;;;;;0.01;0.00;59042.03;10461297;28;20045;-83
2023/05/20 19:44:40;;;;;;;2.88;1.13;;;;;;;0.01;0.00;59042.03;10460535;28;20073;-82
2023/05/20 19:49:42;;;;;;;3.63;1.27;;;;;;;0.01;0.00;59042.03;10460770;28;20106;-84
2023/05/20 19:54:43;;;;;;;3.08;1.38;;;;;;;0.01;0.00;59042.03;10458878;28;20075;-83
2023/05/20 19:59:45;;;;;;;3.45;1.23;;;;;;;0.01;0.00;59042.03;10437152;28;20076;-82
2023/05/20 20:04:47;;;;;;;2.28;1.30;;;;;;;0.01;0.00;59042.03;10460314;28;20099;-83
2023/05/20 20:09:50;;;;;;;4.35;1.65;;;;;;;0.01;0.00;59042.03;10460236;28;20049;-83
2023/05/20 20:14:52;;;;;;;2.28;1.08;;;;;;;0.01;0.00;59042.03;10460449;28;20040;-82
2023/05/20 20:19:54;;;;;;;2.85;1.10;;;;;;;0.01;0.00;59042.03;10458142;28;20049;-84
2023/05/20 20:24:55;;;;;;;4.63;1.38;;;;;;;0.01;0.00;59042.03;10445181;28;20081;-83
2023/05/20 20:29:57;;;;;;;3.45;1.40;;;;;;;0.01;0.00;59042.03;10449262;28;20049;-84
2023/05/20 20:34:59;;;;;;;3.00;1.20;;;;;;;0.01;0.00;59042.03;10449967;28;20040;-84
2023/05/20 20:40:11;;;;;;;2.03;1.10;;;;;;;0.01;0.00;59042.03;10449972;28;20398;-83
2023/05/20 20:45:14;;;;;;;3.30;1.35;;;;;;;0.01;0.00;59042.03;10450133;28;20048;-83
2023/05/20 20:50:15;;;;;;;2.47;1.20;;;;;;;0.01;0.00;59042.03;10449284;28;20041;-84
2023/05/20 20:55:17;;;;;;;1.98;1.15;;;;;;;0.01;0.00;59042.03;10449484;28;20501;-84
2023/05/20 21:00:21;;;;;;;7.45;1.85;;;;;;;0.01;0.00;59042.03;10450079;28;20247;-83
2023/05/20 21:05:25;;;;;;;3.38;1.60;;;;;;;0.01;0.00;59042.03;10447934;28;20045;-83
2023/05/20 21:10:28;;;;;;;2.90;1.30;;;;;;;0.01;0.00;59042.03;10448698;28;20045;-83
2023/05/20 21:15:29;;;;;;;2.33;1.23;;;;;;;0.01;0.00;59042.03;10449113;28;20127;-83
2023/05/20 21:20:31;;;;;;;2.80;1.38;;;;;;;0.01;0.00;59042.03;10428939;28;20136;-83
2023/05/20 21:25:33;;;;;;;7.15;1.85;;;;;;;0.01;0.00;59042.03;10447914;28;20053;-83
2023/05/20 21:30:35;;;;;;;6.22;1.73;;;;;;;0.01;0.00;59042.03;10446933;28;20095;-84
2023/05/20 21:35:36;;;;;;;3.58;1.60;;;;;;;0.01;0.00;59042.03;10438048;28;20235;-83
2023/05/20 21:40:39;;;;;;;3.35;1.20;;;;;;;0.01;0.00;59042.03;10445446;28;20658;-83
2023/05/20 21:45:40;;;;;;;5.38;1.33;;;;;;;0.01;0.00;59042.03;10429122;28;20048;-83
2023/05/20 21:50:42;;;;;;;3.60;1.60;;;;;;;0.01;0.00;59042.03;10427530;28;20083;-83
2023/05/20 21:55:44;;;;;;;3.20;1.70;;;;;;;0.01;0.00;59042.03;10455238;28;20040;-83
2023/05/20 22:00:45;;;;;;;2.88;1.35;;;;;;;0.01;0.00;59042.03;10423198;28;20132;-83
2023/05/20 22:05:48;;;;;;;2.97;1.30;;;;;;;0.01;0.00;59042.03;10451951;28;20040;-83
2023/05/20 22:10:50;;;;;;;2.97;1.40;;;;;;;0.01;0.00;59042.03;10471801;28;20393;-83
2023/05/20 22:15:52;;;;;;;4.63;1.70;;;;;;;0.01;0.00;59042.03;10470516;28;20037;-83
2023/05/20 22:20:54;;;;;;;3.83;1.83;;;;;;;0.01;0.00;59042.03;10460490;28;20045;-84
2023/05/20 22:25:56;;;;;;;3.35;1.90;;;;;;;0.01;0.00;59042.03;10424318;28;20567;-83
2023/05/20 22:30:58;;;;;;;5.95;1.98;;;;;;;0.01;0.00;59042.03;10444208;28;20045;-83
2023/05/20 22:35:59;;;;;;;4.57;1.85;;;;;;;0.01;0.00;59042.03;10450060;28;20036;-83
2023/05/20 22:41:01;;;;;;;3.58;1.77;;;;;;;0.01;0.00;59042.03;10451403;28;20045;-83
2023/05/20 22:46:03;;;;;;;5.30;1.80;;;;;;;0.01;0.00;59042.03;10471783;28;20041;-84
2023/05/20 22:51:04;;;;;;;3.58;1.85;;;;;;;0.01;0.00;59042.03;10462420;28;20135;-83
2023/05/20 22:56:06;;;;;;;7.47;1.58;;;;;;;0.01;0.00;59042.03;10464932;28;20044;-83
2023/05/20 23:01:09;;;;;;;4.53;1.70;;;;;;;0.01;0.00;59042.03;10445093;28;20045;-83
2023/05/20 23:06:11;;;;;;;4.40;1.65;;;;;;;0.01;0.00;59042.03;10443584;28;20071;-83
2023/05/20 23:11:13;;;;;;;3.85;1.70;;;;;;;0.01;0.00;59042.03;10434102;28;20777;-83
2023/05/20 23:16:14;;;;;;;6.35;2.20;;;;;;;0.01;0.00;59042.03;10453694;28;20045;-83
2023/05/20 23:21:16;;;;;;;4.03;1.90;;;;;;;0.01;0.00;59042.03;10476068;28;20066;-83
2023/05/20 23:26:18;;;;;;;4.55;1.67;;;;;;;0.01;0.00;59042.03;10470107;28;20061;-83
2023/05/20 23:31:21;;;;;;;3.85;1.80;;;;;;;0.01;0.00;59042.03;10440607;28;20108;-84
2023/05/20 23:36:24;;;;;;;3.20;1.50;;;;;;;0.01;0.00;59042.03;10453800;28;20032;-83
2023/05/20 23:41:26;;;;;;;5.50;1.98;;;;;;;0.01;0.00;59042.03;10475260;28;20043;-84
2023/05/20 23:46:28;;;;;;;7.95;2.20;;;;;;;0.01;0.00;59042.03;10480995;28;20067;-84
2023/05/20 23:51:30;;;;;;;4.53;2.20;;;;;;;0.01;0.00;59042.03;10483323;28;20070;-83
2023/05/20 23:56:32;;;;;;;4.47;1.80;;;;;;;0.01;0.00;59042.03;10472680;28;20065;-83
